Time;durP1;ratioP1;P1;durP2;ratioP2;P2;SDS_P1;SDS_P2;PMS_P1;PMS_P2;Temp;Humidity;BMP_temperature;BMP_pressure;BME280_temperature;BME280_humidity;BME280_pressure;Samples;Min_cycle;Max_cycle;Signal;HPM_P1;HPM_P2
2022/05/27 00:02:02;;;;;;;;;3.00;3.00;;;;;;;;5078364;27;51476;-55
2022/05/27 00:04:56;;;;;;;;;4.00;3.25;;;;;;;;5078576;27;51144;-56
2022/05/27 00:08:01;;;;;;;;;4.00;4.00;;;;;;;;5082320;27;51501;-56
2022/05/27 00:10:49;;;;;;;;;5.75;4.75;;;;;;;;5082233;27;51181;-55
2022/05/27 00:13:52;;;;;;;;;9.00;4.00;;;;;;;;5034978;28;51099;-56
2022/05/27 00:16:49;;;;;;;;;7.00;3.50;;;;;;;;5033889;28;51055;-56
2022/05/27 00:19:33;;;;;;;;;4.50;4.25;;;;;;;;5039425;28;50971;-54
2022/05/27 00:22:29;;;;;;;;;6.00;4.75;;;;;;;;5040430;28;51293;-56
2022/05/27 00:25:15;;;;;;;;;4.75;3.50;;;;;;;;5035520;28;51160;-54
2022/05/27 00:28:00;;;;;;;;;7.00;3.25;;;;;;;;5036664;28;51056;-55
2022/05/27 00:30:46;;;;;;;;;7.50;4.50;;;;;;;;5037792;28;51161;-55
2022/05/27 00:33:33;;;;;;;;;8.75;4.50;;;;;;;;5036878;28;51081;-56
2022/05/27 00:36:23;;;;;;;;;4.25;3.00;;;;;;;;5032280;28;51365;-55
2022/05/27 00:39:18;;;;;;;;;6.50;5.00;;;;;;;;5033489;28;51218;-53
2022/05/27 00:42:04;;;;;;;;;7.25;4.25;;;;;;;;5037705;28;51129;-53
2022/05/27 00:44:48;;;;;;;;;4.75;3.25;;;;;;;;5037282;28;51105;-56
2022/05/27 00:47:38;;;;;;;;;6.25;4.75;;;;;;;;5031410;28;51117;-56
2022/05/27 00:50:29;;;;;;;;;10.25;3.25;;;;;;;;5068806;27;51339;-54
2022/05/27 00:53:20;;;;;;;;;4.50;4.00;;;;;;;;5071456;27;51146;-56
2022/05/27 00:56:09;;;;;;;;;13.75;4.25;;;;;;;;5071503;27;51113;-52
2022/05/27 00:58:56;;;;;;;;;7.25;4.00;;;;;;;;5063945;27;51013;-56
2022/05/27 01:01:51;;;;;;;;;6.25;4.00;;;;;;;;5058634;28;51270;-55
2022/05/27 01:04:40;;;;;;;;;6.25;3.50;;;;;;;;5078609;27;51358;-54
2022/05/27 01:07:28;;;;;;;;;12.25;3.75;;;;;;;;5073717;27;51053;-53
2022/05/27 01:10:19;;;;;;;;;6.50;3.50;;;;;;;;5070814;27;50969;-56
2022/05/27 01:13:09;;;;;;;;;6.25;2.75;;;;;;;;5075170;27;51242;-55
2022/05/27 01:16:14;;;;;;;;;5.75;3.50;;;;;;;;5075318;27;51369;-55
2022/05/27 01:22:21;;;;;;;;;5.00;3.00;;;;;;;;5078755;27;51205;-56
2022/05/27 01:25:14;;;;;;;;;8.00;3.00;;;;;;;;5079194;27;51315;-55
2022/05/27 01:28:27;;;;;;;;;10.75;5.00;;;;;;;;5080182;27;51095;-52
2022/05/27 01:31:30;;;;;;;;;4.25;2.25;;;;;;;;5074651;27;51387;-54
2022/05/27 01:34:24;;;;;;;;;5.00;3.00;;;;;;;;5076239;27;51340;-55
2022/05/27 01:37:27;;;;;;;;;5.50;3.00;;;;;;;;5078918;27;51091;-56
2022/05/27 01:40:31;;;;;;;;;4.75;3.75;;;;;;;;5074831;27;51706;-56
2022/05/27 01:43:35;;;;;;;;;6.50;3.00;;;;;;;;5074515;27;51449;-53
2022/05/27 01:46:52;;;;;;;;;6.25;3.00;;;;;;;;5075899;27;51680;-54
2022/05/27 01:49:43;;;;;;;;;9.00;2.50;;;;;;;;5045254;27;51174;-56
2022/05/27 01:52:34;;;;;;;;;9.50;4.50;;;;;;;;5078139;27;51509;-54
2022/05/27 01:55:28;;;;;;;;;3.00;3.00;;;;;;;;5077352;27;51134;-54
2022/05/27 01:58:39;;;;;;;;;6.50;2.00;;;;;;;;5068987;27;51286;-55
2022/05/27 02:01:28;;;;;;;;;10.25;5.75;;;;;;;;5073011;27;51040;-56
2022/05/27 02:07:05;;;;;;;;;11.00;6.75;;;;;;;;4995827;28;51190;-56
2022/05/27 02:10:05;;;;;;;;;10.00;4.75;;;;;;;;4990911;28;52447;-55
2022/05/27 02:13:11;;;;;;;;;5.00;4.25;;;;;;;;4992994;28;51175;-56
2022/05/27 02:15:59;;;;;;;;;11.25;8.25;;;;;;;;4996213;28;51145;-54
2022/05/27 02:19:08;;;;;;;;;11.50;9.25;;;;;;;;4997167;28;51554;-55
2022/05/27 02:22:03;;;;;;;;;10.50;9.00;;;;;;;;4993980;28;51248;-56
2022/05/27 02:24:50;;;;;;;;;44.50;33.75;;;;;;;;4982260;28;51180;-53
2022/05/27 02:28:00;;;;;;;;;20.75;17.00;;;;;;;;4899609;29;51239;-56
2022/05/27 02:30:47;;;;;;;;;14.00;11.00;;;;;;;;4891845;29;51174;-56
2022/05/27 02:36:47;;;;;;;;;18.50;14.25;;;;;;;;4893219;29;51191;-55
2022/05/27 02:39:55;;;;;;;;;22.00;14.75;;;;;;;;4896300;29;51214;-56
2022/05/27 02:43:01;;;;;;;;;23.25;16.25;;;;;;;;4898099;29;51157;-52
2022/05/27 02:46:19;;;;;;;;;20.00;13.00;;;;;;;;4990150;28;51515;-54
2022/05/27 02:49:06;;;;;;;;;20.00;16.75;;;;;;;;4991664;28;51138;-55
2022/05/27 02:51:52;;;;;;;;;18.50;13.25;;;;;;;;4992967;28;51052;-56
2022/05/27 02:55:24;;;;;;;;;16.50;13.25;;;;;;;;4982453;28;51072;-53
2022/05/27 02:58:10;;;;;;;;;21.50;19.50;;;;;;;;4915741;28;51101;-54
2022/05/27 03:00:55;;;;;;;;;21.00;19.25;;;;;;;;4909037;28;51218;-54
2022/05/27 03:03:41;;;;;;;;;16.50;14.50;;;;;;;;4960999;28;51665;-53
2022/05/27 03:06:45;;;;;;;;;16.00;16.00;;;;;;;;4982756;28;51071;-55
2022/05/27 03:09:47;;;;;;;;;22.25;19.25;;;;;;;;5045499;27;51150;-53
2022/05/27 03:12:51;;;;;;;;;21.50;17.50;;;;;;;;5073498;27;51368;-55
2022/05/27 03:15:54;;;;;;;;;16.75;15.25;;;;;;;;5075033;27;51244;-54
2022/05/27 03:18:47;;;;;;;;;23.00;15.25;;;;;;;;5078445;27;51063;-55
2022/05/27 03:21:46;;;;;;;;;23.00;16.75;;;;;;;;5082091;27;51136;-56
2022/05/27 03:24:49;;;;;;;;;21.25;14.50;;;;;;;;5075562;27;51019;-55
2022/05/27 03:27:53;;;;;;;;;16.00;11.50;;;;;;;;5080479;27;51166;-56
2022/05/27 03:30:41;;;;;;;;;13.75;12.00;;;;;;;;5075515;27;51364;-55
2022/05/27 03:33:45;;;;;;;;;17.75;14.75;;;;;;;;5082496;27;51237;-52
2022/05/27 03:36:53;;;;;;;;;16.50;13.25;;;;;;;;5037406;28;51124;-55
2022/05/27 03:39:48;;;;;;;;;15.25;12.75;;;;;;;;5012523;28;51053;-54
2022/05/27 03:42:36;;;;;;;;;14.00;12.25;;;;;;;;5031186;28;51628;-55
2022/05/27 03:45:22;;;;;;;;;17.75;13.25;;;;;;;;5033418;28;51542;-55
2022/05/27 03:48:06;;;;;;;;;17.00;15.00;;;;;;;;5019247;28;51227;-54
2022/05/27 03:50:53;;;;;;;;;18.50;13.00;;;;;;;;5028895;28;51055;-55
2022/05/27 03:56:45;;;;;;;;;18.00;15.00;;;;;;;;5027912;28;51584;-56
2022/05/27 03:59:30;;;;;;;;;19.00;13.00;;;;;;;;5030368;28;51205;-56
2022/05/27 04:02:16;;;;;;;;;17.00;13.75;;;;;;;;5025061;28;51180;-55
2022/05/27 04:05:02;;;;;;;;;14.00;13.50;;;;;;;;5019792;28;52420;-56
2022/05/27 04:07:47;;;;;;;;;16.75;12.00;;;;;;;;5056923;27;51109;-52
2022/05/27 04:10:32;;;;;;;;;15.50;13.00;;;;;;;;5081054;27;51227;-54
2022/05/27 04:13:36;;;;;;;;;16.25;14.00;;;;;;;;5081276;27;51149;-54
2022/05/27 04:16:31;;;;;;;;;24.00;16.50;;;;;;;;5075629;27;51015;-55
2022/05/27 04:19:19;;;;;;;;;21.50;16.75;;;;;;;;5076412;27;51116;-56
2022/05/27 04:22:07;;;;;;;;;27.00;19.00;;;;;;;;5076321;27;51475;-53
2022/05/27 04:24:54;;;;;;;;;18.25;16.00;;;;;;;;5071354;27;51188;-54
2022/05/27 04:27:54;;;;;;;;;20.00;17.00;;;;;;;;5008723;28;51499;-55
2022/05/27 04:30:39;;;;;;;;;14.75;14.75;;;;;;;;5000523;28;51123;-55
2022/05/27 04:33:24;;;;;;;;;21.25;17.00;;;;;;;;5015078;28;51334;-55
2022/05/27 04:36:11;;;;;;;;;18.25;15.25;;;;;;;;5010182;28;51423;-55
2022/05/27 04:38:57;;;;;;;;;20.00;14.00;;;;;;;;5000036;28;51209;-55
2022/05/27 04:41:42;;;;;;;;;24.25;20.75;;;;;;;;5006262;28;51141;-54
2022/05/27 04:44:26;;;;;;;;;33.00;28.25;;;;;;;;5016368;28;51170;-55
2022/05/27 04:47:11;;;;;;;;;33.75;26.75;;;;;;;;5013893;28;51533;-56
2022/05/27 04:49:56;;;;;;;;;28.50;26.25;;;;;;;;5006232;28;51060;-55
2022/05/27 04:52:46;;;;;;;;;29.00;25.00;;;;;;;;5014017;28;51114;-56
2022/05/27 04:55:34;;;;;;;;;25.75;21.75;;;;;;;;5012579;28;51439;-54
2022/05/27 04:58:19;;;;;;;;;28.50;21.75;;;;;;;;5011318;28;51380;-56
2022/05/27 05:01:15;;;;;;;;;57.75;43.25;;;;;;;;5010858;28;51678;-55
2022/05/27 05:04:05;;;;;;;;;50.00;39.00;;;;;;;;5032668;27;51268;-54
2022/05/27 05:06:51;;;;;;;;;56.75;45.00;;;;;;;;5076205;27;51127;-55
2022/05/27 05:09:37;;;;;;;;;31.00;29.25;;;;;;;;5075804;27;51283;-55
2022/05/27 05:12:24;;;;;;;;;26.00;21.75;;;;;;;;5056935;27;51441;-56
2022/05/27 05:15:09;;;;;;;;;29.00;23.50;;;;;;;;5078327;27;51145;-54
2022/05/27 05:17:57;;;;;;;;;23.75;22.25;;;;;;;;5069175;27;51149;-55
2022/05/27 05:20:50;;;;;;;;;18.00;16.00;;;;;;;;5078444;27;51499;-54
2022/05/27 05:23:55;;;;;;;;;20.75;15.75;;;;;;;;5073632;27;51190;-54
2022/05/27 05:26:51;;;;;;;;;19.25;17.75;;;;;;;;5011619;28;51681;-54
2022/05/27 05:29:36;;;;;;;;;14.50;12.50;;;;;;;;5012761;28;51483;-55
2022/05/27 05:32:23;;;;;;;;;18.50;15.00;;;;;;;;5012770;28;51080;-54
2022/05/27 05:35:11;;;;;;;;;19.00;16.00;;;;;;;;5013765;28;51165;-55
2022/05/27 05:37:57;;;;;;;;;19.50;15.75;;;;;;;;5002719;28;51772;-54
2022/05/27 05:40:47;;;;;;;;;19.75;16.75;;;;;;;;5014262;28;51093;-55
2022/05/27 05:43:31;;;;;;;;;22.50;19.00;;;;;;;;4999859;28;51253;-56
2022/05/27 05:46:17;;;;;;;;;21.75;19.00;;;;;;;;5015407;28;51537;-54
2022/05/27 05:49:09;;;;;;;;;19.50;18.25;;;;;;;;5013408;28;51145;-55
2022/05/27 05:51:57;;;;;;;;;22.00;19.50;;;;;;;;4999029;28;51717;-53
2022/05/27 05:54:41;;;;;;;;;30.50;23.25;;;;;;;;5013831;28;51217;-56
2022/05/27 05:57:36;;;;;;;;;26.75;24.75;;;;;;;;5013092;28;51341;-55
2022/05/27 06:00:28;;;;;;;;;25.75;19.00;;;;;;;;5010787;28;51278;-54
2022/05/27 06:03:52;;;;;;;;;26.75;19.50;;;;;;;;4953183;28;51643;-54
2022/05/27 06:06:41;;;;;;;;;31.25;21.50;;;;;;;;4976937;28;51149;-54
2022/05/27 06:09:47;;;;;;;;;25.00;22.25;;;;;;;;4978070;28;51140;-53
2022/05/27 06:12:34;;;;;;;;;30.00;24.00;;;;;;;;4977393;28;51396;-56
2022/05/27 06:15:19;;;;;;;;;33.50;26.25;;;;;;;;4979556;28;51421;-54
2022/05/27 06:18:06;;;;;;;;;28.25;26.00;;;;;;;;4977611;28;51394;-54
2022/05/27 06:21:13;;;;;;;;;30.00;27.00;;;;;;;;4979148;28;51225;-53
2022/05/27 06:24:01;;;;;;;;;38.00;31.75;;;;;;;;4980947;28;51204;-55
2022/05/27 06:26:45;;;;;;;;;29.50;27.00;;;;;;;;4977657;28;51264;-56
2022/05/27 06:35:59;;;;;;;;;30.50;27.50;;;;;;;;5075342;28;50945;-54
2022/05/27 06:38:45;;;;;;;;;28.25;26.25;;;;;;;;5060043;28;51439;-55
2022/05/27 06:41:30;;;;;;;;;27.50;26.75;;;;;;;;5075184;28;51260;-54
2022/05/27 06:44:15;;;;;;;;;30.00;25.50;;;;;;;;5075469;28;51097;-59
2022/05/27 06:47:02;;;;;;;;;32.75;27.75;;;;;;;;5079291;28;51410;-57
2022/05/27 06:50:07;;;;;;;;;26.50;24.50;;;;;;;;5076664;28;51347;-47
2022/05/27 06:53:13;;;;;;;;;30.25;24.25;;;;;;;;5076021;28;51169;-47
2022/05/27 06:56:11;;;;;;;;;30.00;24.50;;;;;;;;5077968;28;51530;-47
2022/05/27 06:58:56;;;;;;;;;27.00;22.00;;;;;;;;5079195;28;51451;-46
2022/05/27 07:01:43;;;;;;;;;25.50;22.75;;;;;;;;5077436;28;51145;-48
2022/05/27 07:04:32;;;;;;;;;24.75;22.00;;;;;;;;5061960;28;51492;-51
2022/05/27 07:07:16;;;;;;;;;25.75;21.50;;;;;;;;5078896;28;51044;-49
2022/05/27 07:10:19;;;;;;;;;26.00;22.00;;;;;;;;5078721;28;50951;-47
2022/05/27 07:13:09;;;;;;;;;44.00;31.50;;;;;;;;5078246;28;51078;-52
2022/05/27 07:16:14;;;;;;;;;21.75;18.00;;;;;;;;5078307;28;51077;-50
2022/05/27 07:18:58;;;;;;;;;23.50;19.50;;;;;;;;5077159;28;51156;-46
2022/05/27 07:21:47;;;;;;;;;27.67;23.67;;;;;;;;4926596;28;4841301;-49
2022/05/27 07:24:31;;;;;;;;;25.25;20.00;;;;;;;;5099146;28;11399;-48
2022/05/27 07:27:16;;;;;;;;;23.00;19.50;;;;;;;;5115397;28;8810;-45
2022/05/27 07:30:01;;;;;;;;;28.50;27.00;;;;;;;;5114993;28;8778;-49
2022/05/27 07:32:45;;;;;;;;;33.25;23.25;;;;;;;;5109926;28;8775;-47
2022/05/27 07:35:34;;;;;;;;;24.75;20.25;;;;;;;;5113467;28;8806;-46
2022/05/27 07:38:20;;;;;;;;;26.50;17.25;;;;;;;;5079936;28;8779;-47
2022/05/27 07:41:05;;;;;;;;;24.00;18.50;;;;;;;;5093344;28;8781;-45
2022/05/27 07:43:51;;;;;;;;;17.00;14.00;;;;;;;;5084604;28;8813;-47
2022/05/27 07:46:46;;;;;;;;;18.50;12.25;;;;;;;;5089994;28;8945;-45
2022/05/27 07:49:30;;;;;;;;;16.75;15.25;;;;;;;;5084945;27;8772;-46
2022/05/27 07:52:15;;;;;;;;;19.50;14.75;;;;;;;;5084996;28;9554;-46
2022/05/27 07:55:20;;;;;;;;;16.00;13.50;;;;;;;;5097458;28;8793;-49
2022/05/27 07:58:06;;;;;;;;;16.25;11.50;;;;;;;;5074888;28;8777;-46
2022/05/27 08:00:52;;;;;;;;;17.00;13.75;;;;;;;;5096505;28;8801;-45
2022/05/27 08:03:37;;;;;;;;;19.75;15.75;;;;;;;;5088143;28;8805;-45
2022/05/27 08:06:23;;;;;;;;;19.75;12.50;;;;;;;;5094352;28;8809;-47
2022/05/27 08:09:12;;;;;;;;;19.00;14.25;;;;;;;;5091270;28;8775;-46
2022/05/27 08:11:58;;;;;;;;;18.50;13.25;;;;;;;;5090784;28;8780;-45
2022/05/27 08:14:42;;;;;;;;;14.75;12.75;;;;;;;;5096740;28;8800;-47
2022/05/27 08:17:26;;;;;;;;;21.75;15.50;;;;;;;;5089786;28;8785;-47
2022/05/27 08:20:14;;;;;;;;;10.50;10.25;;;;;;;;5098012;28;8785;-45
2022/05/27 08:23:00;;;;;;;;;16.50;12.50;;;;;;;;5093534;27;9566;-46
2022/05/27 08:25:46;;;;;;;;;16.00;14.50;;;;;;;;5095339;28;8813;-47
2022/05/27 08:28:31;;;;;;;;;17.00;11.50;;;;;;;;5098351;28;8793;-48
2022/05/27 08:31:18;;;;;;;;;15.25;14.00;;;;;;;;5086278;28;8898;-49
2022/05/27 08:40:41;;;;;;;;;14.50;14.00;;;;;;;;5093420;28;8788;-47
2022/05/27 08:43:46;;;;;;;;;13.75;11.50;;;;;;;;5091040;28;8798;-47
2022/05/27 08:46:58;;;;;;;;;11.00;11.00;;;;;;;;5093256;27;8809;-48
2022/05/27 08:49:45;;;;;;;;;18.25;17.25;;;;;;;;5033834;28;9581;-50
2022/05/27 08:52:47;;;;;;;;;19.50;11.00;;;;;;;;5089106;28;8779;-48
2022/05/27 09:01:47;;;;;;;;;21.50;20.00;;;;;;;;5092300;28;8915;-48
2022/05/27 09:04:48;;;;;;;;;18.25;16.75;;;;;;;;5095685;28;8769;-50
2022/05/27 09:07:55;;;;;;;;;20.50;13.00;;;;;;;;5090462;28;8817;-46
2022/05/27 09:10:51;;;;;;;;;22.75;18.00;;;;;;;;5096176;28;8797;-47
2022/05/27 09:13:42;;;;;;;;;16.75;16.25;;;;;;;;5096798;28;9569;-48
2022/05/27 09:16:37;;;;;;;;;20.50;18.50;;;;;;;;5096419;28;8785;-47
2022/05/27 09:19:27;;;;;;;;;21.00;16.75;;;;;;;;5089974;28;8804;-49
2022/05/27 09:22:30;;;;;;;;;21.75;19.00;;;;;;;;5091903;28;8792;-49
2022/05/27 09:25:34;;;;;;;;;17.25;13.25;;;;;;;;5089895;28;8808;-50
2022/05/27 09:28:37;;;;;;;;;10.75;7.75;;;;;;;;5089707;28;8785;-48
2022/05/27 09:31:30;;;;;;;;;7.25;5.75;;;;;;;;5091294;28;8931;-48
2022/05/27 09:34:17;;;;;;;;;9.50;8.00;;;;;;;;5089247;28;8793;-49
2022/05/27 09:37:05;;;;;;;;;8.00;5.75;;;;;;;;5091282;28;8812;-49
2022/05/27 09:39:54;;;;;;;;;5.50;5.00;;;;;;;;5094070;27;8793;-47
2022/05/27 09:42:58;;;;;;;;;9.75;6.50;;;;;;;;5091154;28;8808;-49
2022/05/27 09:45:43;;;;;;;;;6.75;6.00;;;;;;;;5089474;28;8797;-48
2022/05/27 09:51:32;;;;;;;;;5.25;4.50;;;;;;;;5088373;28;9525;-47
2022/05/27 09:54:36;;;;;;;;;9.50;4.25;;;;;;;;5088135;28;8773;-49
2022/05/27 09:57:25;;;;;;;;;8.00;6.75;;;;;;;;5088888;28;8797;-48
2022/05/27 10:00:12;;;;;;;;;13.25;9.75;;;;;;;;5095522;28;8801;-47
2022/05/27 10:03:01;;;;;;;;;9.00;6.75;;;;;;;;5096548;28;8809;-50
2022/05/27 10:06:15;;;;;;;;;10.75;6.75;;;;;;;;5092523;27;9549;-47
2022/05/27 10:09:06;;;;;;;;;10.50;9.50;;;;;;;;5095031;27;8763;-48
2022/05/27 10:11:52;;;;;;;;;9.00;9.00;;;;;;;;5091207;28;8789;-50
2022/05/27 10:14:50;;;;;;;;;8.75;8.00;;;;;;;;5087903;28;8777;-48
2022/05/27 10:17:37;;;;;;;;;8.75;7.50;;;;;;;;5093160;28;8773;-48
2022/05/27 10:20:30;;;;;;;;;13.75;9.25;;;;;;;;5095986;28;8781;-48
2022/05/27 10:23:42;;;;;;;;;10.25;8.75;;;;;;;;5095894;28;8777;-50
2022/05/27 10:26:29;;;;;;;;;16.25;13.50;;;;;;;;5095009;28;8805;-46
2022/05/27 10:29:15;;;;;;;;;19.25;13.75;;;;;;;;5093901;27;8789;-49
2022/05/27 10:32:01;;;;;;;;;15.25;13.25;;;;;;;;5104267;28;8796;-49
2022/05/27 10:34:49;;;;;;;;;17.00;13.50;;;;;;;;5092080;28;8796;-47
2022/05/27 10:37:36;;;;;;;;;16.75;12.75;;;;;;;;5094103;28;8820;-48
2022/05/27 10:40:36;;;;;;;;;17.50;11.75;;;;;;;;5096216;28;8805;-50
2022/05/27 10:43:36;;;;;;;;;14.25;11.50;;;;;;;;5089730;28;8815;-49
2022/05/27 10:46:23;;;;;;;;;16.00;12.75;;;;;;;;5092044;28;8809;-48
2022/05/27 10:49:27;;;;;;;;;13.50;10.75;;;;;;;;5093818;28;8777;-49
2022/05/27 10:52:36;;;;;;;;;7.50;7.50;;;;;;;;5089805;28;8800;-45
2022/05/27 10:55:29;;;;;;;;;9.25;8.25;;;;;;;;5093189;28;8788;-50
2022/05/27 11:04:41;;;;;;;;;22.50;16.00;;;;;;;;5093992;28;8785;-47
2022/05/27 11:07:38;;;;;;;;;17.50;16.00;;;;;;;;5102040;28;8808;-47
2022/05/27 11:10:28;;;;;;;;;31.25;23.75;;;;;;;;5095978;28;8785;-48
2022/05/27 11:16:35;;;;;;;;;20.25;18.00;;;;;;;;5088238;28;8788;-50
2022/05/27 11:19:26;;;;;;;;;13.50;13.50;;;;;;;;5090245;28;8816;-48
2022/05/27 11:22:15;;;;;;;;;21.50;18.25;;;;;;;;5094194;28;8789;-50
2022/05/27 11:25:23;;;;;;;;;24.00;18.25;;;;;;;;5099958;28;8789;-49
2022/05/27 11:28:40;;;;;;;;;18.50;17.00;;;;;;;;5099643;28;8784;-50
2022/05/27 11:31:27;;;;;;;;;19.25;16.25;;;;;;;;5059051;28;8803;-50
2022/05/27 11:34:19;;;;;;;;;19.00;15.25;;;;;;;;5096632;28;8805;-48
2022/05/27 11:37:22;;;;;;;;;15.00;15.00;;;;;;;;5095016;28;8844;-49
2022/05/27 11:40:13;;;;;;;;;19.50;18.00;;;;;;;;5097381;28;8812;-47
2022/05/27 11:43:12;;;;;;;;;17.25;16.00;;;;;;;;5097810;28;8793;-46
2022/05/27 11:46:00;;;;;;;;;20.00;15.50;;;;;;;;5096364;28;8809;-47
2022/05/27 11:48:43;;;;;;;;;22.25;15.50;;;;;;;;5098171;28;8812;-46
2022/05/27 11:51:58;;;;;;;;;18.75;15.50;;;;;;;;5091880;27;8901;-48
2022/05/27 11:55:09;;;;;;;;;20.00;14.75;;;;;;;;5093698;28;9586;-48
2022/05/27 11:57:56;;;;;;;;;14.75;12.75;;;;;;;;5098938;28;8785;-47
2022/05/27 12:00:45;;;;;;;;;22.50;15.75;;;;;;;;5097523;28;8781;-49
2022/05/27 12:03:34;;;;;;;;;13.50;9.50;;;;;;;;5099017;28;8781;-48
2022/05/27 12:06:21;;;;;;;;;14.75;12.25;;;;;;;;5091400;28;8919;-47
2022/05/27 12:09:07;;;;;;;;;18.50;11.75;;;;;;;;5094650;27;8825;-48
2022/05/27 12:11:55;;;;;;;;;14.25;12.50;;;;;;;;5097650;28;8765;-49
2022/05/27 12:14:45;;;;;;;;;17.25;14.25;;;;;;;;5095924;28;8784;-46
2022/05/27 12:17:48;;;;;;;;;16.25;14.75;;;;;;;;5094632;28;8783;-47
2022/05/27 12:20:38;;;;;;;;;21.00;15.25;;;;;;;;5097407;28;10243;-48
2022/05/27 12:23:23;;;;;;;;;17.50;14.25;;;;;;;;5098586;28;8797;-47
2022/05/27 12:26:08;;;;;;;;;14.50;14.00;;;;;;;;5088468;28;8792;-48
2022/05/27 12:28:52;;;;;;;;;16.75;15.75;;;;;;;;5092426;28;8777;-51
2022/05/27 12:31:37;;;;;;;;;32.00;26.50;;;;;;;;5097869;28;8773;-48
2022/05/27 12:34:28;;;;;;;;;26.25;18.75;;;;;;;;5095428;28;8765;-48
2022/05/27 12:37:48;;;;;;;;;18.00;16.25;;;;;;;;5095585;28;8785;-48
2022/05/27 12:40:38;;;;;;;;;17.25;13.25;;;;;;;;5093774;28;8789;-49
2022/05/27 12:43:24;;;;;;;;;16.75;14.25;;;;;;;;5087819;28;8789;-47
2022/05/27 12:46:22;;;;;;;;;22.50;15.00;;;;;;;;5093758;28;8809;-48
2022/05/27 12:49:25;;;;;;;;;16.75;14.25;;;;;;;;5095001;28;8801;-49
2022/05/27 12:52:31;;;;;;;;;21.00;15.00;;;;;;;;5095938;28;9193;-47
2022/05/27 13:02:50;;;;;;;;;14.00;9.00;;;;;;;;5072635;28;8779;-47
2022/05/27 13:06:07;;;;;;;;;18.25;14.00;;;;;;;;5070488;28;8803;-51
2022/05/27 13:09:01;;;;;;;;;13.25;12.50;;;;;;;;4992498;28;8810;-50
2022/05/27 13:12:11;;;;;;;;;16.50;14.50;;;;;;;;5056360;28;8805;-48
2022/05/27 13:14:55;;;;;;;;;16.25;12.75;;;;;;;;5094001;28;8793;-48
2022/05/27 13:17:45;;;;;;;;;12.25;8.25;;;;;;;;5091370;27;8816;-49
2022/05/27 13:20:54;;;;;;;;;18.25;12.25;;;;;;;;5087776;28;8804;-47
2022/05/27 13:24:10;;;;;;;;;12.25;12.25;;;;;;;;5087183;28;8781;-49
2022/05/27 13:26:54;;;;;;;;;13.75;13.25;;;;;;;;5074834;28;8931;-48
2022/05/27 13:30:04;;;;;;;;;13.25;11.25;;;;;;;;5087355;28;8787;-47
2022/05/27 13:32:54;;;;;;;;;18.50;15.00;;;;;;;;5085747;28;8909;-47
2022/05/27 13:35:41;;;;;;;;;16.00;14.25;;;;;;;;5092131;28;8789;-47
2022/05/27 13:38:32;;;;;;;;;15.25;13.50;;;;;;;;5085806;28;8789;-49
2022/05/27 13:41:19;;;;;;;;;14.75;14.50;;;;;;;;5079973;28;8808;-47
2022/05/27 14:24:57;;;;;;;;;15.25;13.50;;;;;;;;4974749;28;51107;-51
2022/05/27 14:27:45;;;;;;;;;16.50;12.50;;;;;;;;4974481;28;51124;-51
2022/05/27 14:30:35;;;;;;;;;15.25;14.00;;;;;;;;4974873;28;51161;-51
2022/05/27 14:33:38;;;;;;;;;17.25;12.00;;;;;;;;4972914;28;51167;-48
2022/05/27 14:36:23;;;;;;;;;17.50;13.00;;;;;;;;4959774;28;51232;-44
2022/05/27 14:39:10;;;;;;;;;15.50;13.75;;;;;;;;4974373;28;51452;-50
2022/05/27 14:41:54;;;;;;;;;9.75;9.75;;;;;;;;4974477;28;51572;-48
2022/05/27 14:44:40;;;;;;;;;10.00;8.00;;;;;;;;4980972;28;51239;-45
2022/05/27 14:47:29;;;;;;;;;11.00;7.75;;;;;;;;4994338;28;51131;-45
2022/05/27 14:50:16;;;;;;;;;8.00;7.00;;;;;;;;4990219;28;51579;-47
2022/05/27 14:53:01;;;;;;;;;4.50;4.00;;;;;;;;4979926;28;51094;-49
2022/05/27 14:55:47;;;;;;;;;5.75;4.50;;;;;;;;4994001;28;51476;-48
2022/05/27 14:58:35;;;;;;;;;7.00;2.00;;;;;;;;5050299;27;51100;-45
2022/05/27 15:01:36;;;;;;;;;6.00;2.75;;;;;;;;5117950;27;51177;-45
2022/05/27 15:04:27;;;;;;;;;4.25;3.00;;;;;;;;5117363;27;51071;-47
2022/05/27 15:07:22;;;;;;;;;5.50;2.75;;;;;;;;5117154;27;51413;-48
2022/05/27 15:10:15;;;;;;;;;9.25;4.00;;;;;;;;5116315;27;51114;-45
2022/05/27 15:13:19;;;;;;;;;1.50;1.50;;;;;;;;5117379;27;51213;-47
2022/05/27 15:16:11;;;;;;;;;4.50;1.75;;;;;;;;5115371;27;51945;-45
2022/05/27 15:19:04;;;;;;;;;3.50;2.50;;;;;;;;5117106;27;51112;-45
2022/05/27 15:21:55;;;;;;;;;4.25;2.00;;;;;;;;5129694;27;51117;-48
2022/05/27 15:24:57;;;;;;;;;5.00;2.00;;;;;;;;5137648;27;50986;-46
2022/05/27 15:33:44;;;;;;;;;3.75;2.75;;;;;;;;5111678;27;51451;-46
2022/05/27 15:36:28;;;;;;;;;5.50;2.00;;;;;;;;5121458;27;51230;-46
2022/05/27 15:39:13;;;;;;;;;4.00;2.00;;;;;;;;5123767;27;51222;-45
2022/05/27 15:41:58;;;;;;;;;3.75;1.75;;;;;;;;5123309;27;51465;-49
2022/05/27 15:44:43;;;;;;;;;2.00;1.75;;;;;;;;5108068;27;51161;-45
2022/05/27 15:47:27;;;;;;;;;2.50;2.00;;;;;;;;5123758;27;51360;-45
2022/05/27 15:50:12;;;;;;;;;9.75;8.00;;;;;;;;5123106;27;51077;-45
2022/05/27 15:52:56;;;;;;;;;2.75;2.50;;;;;;;;5107771;27;51127;-44
2022/05/27 15:55:41;;;;;;;;;2.75;2.75;;;;;;;;5108212;27;51380;-44
2022/05/27 15:58:25;;;;;;;;;4.75;4.75;;;;;;;;5102491;27;51441;-47
2022/05/27 16:01:10;;;;;;;;;3.75;3.00;;;;;;;;5102318;27;51104;-48
2022/05/27 16:03:54;;;;;;;;;4.00;2.25;;;;;;;;5106492;27;51076;-48
2022/05/27 16:06:39;;;;;;;;;5.75;3.50;;;;;;;;5123072;27;51078;-48
2022/05/27 16:09:24;;;;;;;;;3.00;2.00;;;;;;;;5112893;27;51133;-46
2022/05/27 16:12:11;;;;;;;;;7.00;3.00;;;;;;;;5102747;27;51130;-47
2022/05/27 16:14:58;;;;;;;;;5.00;4.00;;;;;;;;5105279;27;51008;-46
2022/05/27 16:17:51;;;;;;;;;3.25;3.00;;;;;;;;5105376;27;51585;-47
2022/05/27 16:20:39;;;;;;;;;7.00;2.00;;;;;;;;5101807;27;51479;-46
2022/05/27 16:23:23;;;;;;;;;5.75;3.25;;;;;;;;5120443;27;51513;-47
2022/05/27 16:26:08;;;;;;;;;5.75;3.75;;;;;;;;5122870;27;51734;-45
2022/05/27 16:28:52;;;;;;;;;2.75;2.00;;;;;;;;5123093;27;51134;-47
2022/05/27 16:31:37;;;;;;;;;6.50;3.25;;;;;;;;5122695;27;51021;-46
2022/05/27 16:34:22;;;;;;;;;2.75;1.75;;;;;;;;5122777;27;51140;-47
2022/05/27 16:37:06;;;;;;;;;5.00;3.00;;;;;;;;5122936;27;51041;-46
2022/05/27 16:39:51;;;;;;;;;3.50;2.25;;;;;;;;5121765;27;51114;-45
2022/05/27 16:42:35;;;;;;;;;5.00;2.75;;;;;;;;5122872;27;51012;-45
2022/05/27 16:45:21;;;;;;;;;5.50;4.25;;;;;;;;5106830;27;51602;-45
2022/05/27 16:48:07;;;;;;;;;6.75;4.50;;;;;;;;5116906;27;51105;-47
2022/05/27 16:50:51;;;;;;;;;4.50;3.00;;;;;;;;5121797;27;51173;-47
2022/05/27 16:53:35;;;;;;;;;5.75;3.25;;;;;;;;5122558;27;51088;-46
2022/05/27 16:56:20;;;;;;;;;7.00;4.00;;;;;;;;5109309;27;51245;-46
2022/05/27 16:59:04;;;;;;;;;5.75;5.00;;;;;;;;5101521;27;51049;-45
2022/05/27 17:02:27;;;;;;;;;5.00;3.00;;;;;;;;5101690;27;51484;-48
2022/05/27 17:05:17;;;;;;;;;4.75;3.75;;;;;;;;5101148;27;51047;-46
2022/05/27 17:08:05;;;;;;;;;8.00;6.75;;;;;;;;5104466;27;51194;-46
2022/05/27 17:10:51;;;;;;;;;4.00;4.00;;;;;;;;5100922;27;51563;-47
2022/05/27 17:13:38;;;;;;;;;5.00;3.00;;;;;;;;5118693;27;51429;-46
2022/05/27 17:16:42;;;;;;;;;5.25;2.75;;;;;;;;5116148;27;51060;-46
2022/05/27 17:19:35;;;;;;;;;4.00;4.00;;;;;;;;5122174;27;51069;-48
2022/05/27 17:22:33;;;;;;;;;4.75;2.00;;;;;;;;5121295;27;51497;-49
2022/05/27 17:25:17;;;;;;;;;3.00;3.00;;;;;;;;5121519;27;51063;-44
2022/05/27 17:28:01;;;;;;;;;7.00;6.00;;;;;;;;5112981;27;51373;-45
2022/05/27 17:30:47;;;;;;;;;6.00;3.25;;;;;;;;5113152;27;51134;-50
2022/05/27 17:33:33;;;;;;;;;7.50;4.50;;;;;;;;5119120;27;51094;-47
2022/05/27 17:36:17;;;;;;;;;4.75;3.75;;;;;;;;5116837;27;51488;-47
2022/05/27 17:39:04;;;;;;;;;5.00;2.50;;;;;;;;5115310;27;53006;-45
2022/05/27 17:41:48;;;;;;;;;5.75;3.25;;;;;;;;5116528;27;51724;-45
2022/05/27 17:44:38;;;;;;;;;9.00;4.00;;;;;;;;5118410;27;51151;-46
2022/05/27 17:53:28;;;;;;;;;2.25;2.25;;;;;;;;5116619;27;51337;-46
2022/05/27 17:56:24;;;;;;;;;6.25;4.00;;;;;;;;5111116;27;51061;-44
2022/05/27 17:59:09;;;;;;;;;7.75;3.25;;;;;;;;5119039;27;51169;-45
2022/05/27 18:01:55;;;;;;;;;5.50;0.75;;;;;;;;5113444;27;51457;-47
2022/05/27 18:04:41;;;;;;;;;5.50;4.00;;;;;;;;5116027;27;51062;-47
2022/05/27 18:07:25;;;;;;;;;4.00;3.50;;;;;;;;5113639;27;51115;-46
2022/05/27 18:10:11;;;;;;;;;10.00;7.25;;;;;;;;5109037;27;51149;-46
2022/05/27 18:12:57;;;;;;;;;6.00;5.00;;;;;;;;5112680;27;51331;-44
2022/05/27 18:15:44;;;;;;;;;7.75;6.00;;;;;;;;5112230;27;51208;-48
2022/05/27 18:18:28;;;;;;;;;6.25;4.00;;;;;;;;5113489;27;51108;-47
2022/05/27 18:21:37;;;;;;;;;9.50;5.00;;;;;;;;5103823;27;51122;-49
2022/05/27 18:24:22;;;;;;;;;7.25;4.75;;;;;;;;5106719;27;51137;-47
2022/05/27 18:27:07;;;;;;;;;3.00;2.00;;;;;;;;5114991;27;51619;-46
2022/05/27 18:29:51;;;;;;;;;6.00;5.50;;;;;;;;5115265;27;51349;-45
2022/05/27 18:32:35;;;;;;;;;4.75;4.00;;;;;;;;5114659;27;51147;-49
2022/05/27 18:35:22;;;;;;;;;8.25;7.00;;;;;;;;5117001;27;51159;-47
2022/05/27 18:38:09;;;;;;;;;4.00;4.00;;;;;;;;5110558;27;51048;-49
2022/05/27 18:41:12;;;;;;;;;5.50;4.00;;;;;;;;5110828;27;52139;-47